Time;durP1;ratioP1;P1;durP2;ratioP2;P2;SDS_P1;SDS_P2;PMS_P1;PMS_P2;Temp;Humidity;BMP_temperature;BMP_pressure;BME280_temperature;BME280_humidity;BME280_pressure;Samples;Min_cycle;Max_cycle;Signal;HPM_P1;HPM_P2
2023/06/27 00:02:53;;;;;;;13.80;7.97;;;;;;;16.78;100.00;97520.97;10371795;28;20543;-48
2023/06/27 00:07:52;;;;;;;12.93;8.27;;;;;;;16.79;100.00;97506.94;10393576;28;20071;-48
2023/06/27 00:12:52;;;;;;;15.45;8.85;;;;;;;16.80;100.00;97511.31;10412559;28;20041;-49
2023/06/27 00:17:53;;;;;;;14.80;8.15;;;;;;;16.73;100.00;97510.63;10410354;28;20576;-49
2023/06/27 00:22:52;;;;;;;14.95;9.00;;;;;;;16.72;100.00;97516.78;10412334;28;20510;-48
2023/06/27 00:27:53;;;;;;;19.50;10.00;;;;;;;16.79;100.00;97506.09;10411526;28;20712;-51
2023/06/27 00:32:52;;;;;;;20.38;9.30;;;;;;;16.78;100.00;97513.13;10412707;28;20494;-48
2023/06/27 00:37:51;;;;;;;17.38;9.23;;;;;;;16.73;100.00;97509.78;10411891;28;20030;-50
2023/06/27 00:42:49;;;;;;;16.65;10.18;;;;;;;16.77;100.00;97511.41;10412121;28;20773;-49
2023/06/27 00:47:56;;;;;;;15.68;8.68;;;;;;;16.57;100.00;97505.88;10411130;28;20035;-49
2023/06/27 00:52:56;;;;;;;17.45;9.55;;;;;;;16.47;100.00;97515.78;10410951;28;20562;-49
2023/06/27 00:57:55;;;;;;;16.20;10.30;;;;;;;16.43;100.00;97517.59;10403260;28;20075;-49
2023/06/27 01:02:55;;;;;;;16.95;9.60;;;;;;;16.35;100.00;97518.72;10369321;28;20137;-50
2023/06/27 01:08:05;;;;;;;26.95;10.48;;;;;;;16.09;100.00;97474.06;10391169;28;20544;-49
2023/06/27 01:13:27;;;;;;;29.90;10.93;;;;;;;16.35;100.00;97521.34;10410176;28;20068;-50
2023/06/27 01:18:28;;;;;;;16.17;10.77;;;;;;;16.34;100.00;97524.88;10386532;28;20076;-50
2023/06/27 01:23:33;;;;;;;20.95;11.15;;;;;;;16.34;100.00;97517.88;10368807;28;20617;-50
2023/06/27 01:28:32;;;;;;;20.63;11.52;;;;;;;16.37;100.00;97517.81;10409923;28;20476;-48
2023/06/27 01:33:48;;;;;;;21.00;13.02;;;;;;;16.40;100.00;97515.09;10390055;28;21153;-50
2023/06/27 01:39:12;;;;;;;20.40;12.95;;;;;;;16.40;100.00;97517.72;10408835;28;20107;-50
2023/06/27 01:44:14;;;;;;;23.55;12.90;;;;;;;16.38;100.00;97511.66;10408178;28;20068;-50
2023/06/27 01:49:14;;;;;;;22.80;12.90;;;;;;;16.38;100.00;97522.13;10408835;28;20123;-50
2023/06/27 01:54:13;;;;;;;21.33;12.00;;;;;;;16.35;100.00;97519.59;10408505;28;20080;-49
2023/06/27 01:59:12;;;;;;;21.80;12.90;;;;;;;16.18;100.00;97479.91;10389935;28;20029;-48
2023/06/27 02:04:11;;;;;;;22.95;12.25;;;;;;;16.37;100.00;97507.31;10367651;28;20047;-51
2023/06/27 02:09:10;;;;;;;22.98;11.45;;;;;;;16.07;100.00;97465.38;10396650;28;20412;-48
2023/06/27 02:14:09;;;;;;;19.20;11.15;;;;;;;16.13;100.00;97494.91;10408218;28;20155;-49
2023/06/27 02:19:08;;;;;;;23.35;12.57;;;;;;;16.14;100.00;97517.53;10407732;28;20052;-49
2023/06/27 02:24:07;;;;;;;;;;;;;;;16.11;100.00;97512.41;10408491;28;20029;-50
2023/06/27 02:29:06;;;;;;;18.50;10.93;;;;;;;16.09;100.00;97509.81;10407684;28;19970;-50
2023/06/27 02:34:05;;;;;;;22.85;12.63;;;;;;;16.01;100.00;97517.03;10407634;28;20032;-50
2023/06/27 02:39:04;;;;;;;21.55;12.18;;;;;;;15.89;100.00;97515.59;10407248;28;20507;-51
2023/06/27 02:44:02;;;;;;;;;;;;;;;15.87;100.00;97525.25;10407787;28;20020;-48
2023/06/27 02:49:01;;;;;;;18.50;11.27;;;;;;;15.82;100.00;97527.13;10406298;28;19974;-48
2023/06/27 02:54:00;;;;;;;20.02;11.45;;;;;;;15.75;100.00;97512.44;10405974;28;20048;-50
2023/06/27 02:58:59;;;;;;;;;;;;;;;15.80;100.00;97519.31;10383793;28;20024;-48
2023/06/27 03:03:58;;;;;;;23.83;12.53;;;;;;;15.85;100.00;97527.03;10406287;28;19916;-48
2023/06/27 03:08:58;;;;;;;26.48;14.65;;;;;;;15.86;100.00;97523.53;10381880;28;20041;-49
2023/06/27 03:13:57;;;;;;;34.97;16.30;;;;;;;15.89;100.00;97528.69;10368155;28;20080;-49
2023/06/27 03:18:56;;;;;;;35.88;16.58;;;;;;;15.97;100.00;97526.72;10368641;28;20128;-47
2023/06/27 03:23:55;;;;;;;59.67;17.15;;;;;;;16.04;100.00;97525.69;10368584;28;20132;-50
2023/06/27 03:28:54;;;;;;;31.25;15.95;;;;;;;16.12;100.00;97524.59;10367844;28;20029;-47
2023/06/27 03:33:54;;;;;;;31.92;17.05;;;;;;;16.22;100.00;97511.22;10369202;28;20069;-50
2023/06/27 03:38:53;;;;;;;29.70;16.80;;;;;;;16.55;100.00;97544.38;10368102;28;20083;-48
2023/06/27 03:43:52;;;;;;;32.10;16.98;;;;;;;16.70;100.00;97551.81;10368091;28;20060;-48
2023/06/27 03:48:56;;;;;;;59.47;18.38;;;;;;;16.71;100.00;97519.44;10367700;28;20045;-50
2023/06/27 03:53:55;;;;;;;29.00;15.73;;;;;;;16.99;100.00;97543.09;10368032;28;20115;-49
2023/06/27 03:58:54;;;;;;;25.88;15.20;;;;;;;17.17;100.00;97544.31;10384485;28;20024;-50
2023/06/27 04:03:53;;;;;;;21.70;13.77;;;;;;;17.38;100.00;97541.91;10409602;28;20053;-50
2023/06/27 04:08:52;;;;;;;20.45;13.23;;;;;;;17.59;100.00;97548.22;10389100;28;20540;-49
2023/06/27 04:13:51;;;;;;;20.63;13.35;;;;;;;17.77;99.21;97539.78;10373402;28;20169;-50
2023/06/27 04:18:50;;;;;;;20.38;12.55;;;;;;;17.75;99.00;97528.44;10371043;28;20435;-48
2023/06/27 04:23:50;;;;;;;19.20;12.32;;;;;;;18.04;98.99;97545.03;10371558;28;20147;-48
2023/06/27 04:28:49;;;;;;;17.73;12.00;;;;;;;18.08;97.01;97520.34;10371450;28;20495;-50
2023/06/27 04:33:48;;;;;;;19.15;12.40;;;;;;;18.31;97.70;97540.56;10371187;28;20485;-48
2023/06/27 04:38:48;;;;;;;14.57;10.40;;;;;;;18.57;95.50;97543.13;10370777;28;20423;-50
2023/06/27 04:43:47;;;;;;;18.35;11.30;;;;;;;18.58;94.22;97544.81;10371086;28;20147;-50
2023/06/27 04:48:46;;;;;;;21.10;11.48;;;;;;;18.51;93.97;97540.72;10370058;28;20036;-49
2023/06/27 04:53:45;;;;;;;13.95;10.70;;;;;;;18.56;94.04;97543.19;10374902;28;20149;-48
2023/06/27 04:58:44;;;;;;;17.30;10.88;;;;;;;18.30;92.94;97516.06;10385405;28;20027;-48
2023/06/27 05:03:43;;;;;;;16.08;9.73;;;;;;;18.54;92.19;97543.22;10410872;28;20555;-49
2023/06/27 05:08:42;;;;;;;16.20;9.45;;;;;;;18.38;93.00;97549.94;10390317;28;20040;-50
2023/06/27 05:13:41;;;;;;;14.25;8.85;;;;;;;18.16;93.47;97553.31;10373348;28;20048;-50
2023/06/27 05:18:41;;;;;;;12.32;8.35;;;;;;;18.02;93.76;97550.31;10368005;28;20119;-48
2023/06/27 05:23:40;;;;;;;15.23;8.57;;;;;;;18.01;94.33;97548.63;10368342;28;20563;-48
2023/06/27 05:28:39;;;;;;;11.88;7.65;;;;;;;18.16;94.12;97552.47;10391954;28;20479;-51
2023/06/27 05:33:38;;;;;;;13.63;7.85;;;;;;;18.10;93.62;97531.66;10378600;28;20128;-51
2023/06/27 05:38:37;;;;;;;15.02;9.00;;;;;;;18.29;94.40;97547.63;10368302;28;20116;-48
2023/06/27 05:43:36;;;;;;;12.07;8.40;;;;;;;18.38;94.43;97550.78;10382394;28;20072;-49
2023/06/27 05:48:34;;;;;;;12.23;8.27;;;;;;;18.45;94.42;97542.69;10368406;28;20045;-48
2023/06/27 05:53:33;;;;;;;13.32;8.30;;;;;;;18.63;94.29;97546.44;10408459;28;20108;-50
2023/06/27 05:58:36;;;;;;;16.58;8.50;;;;;;;18.64;93.61;97546.34;10390293;28;20048;-50
2023/06/27 06:03:35;;;;;;;13.27;7.38;;;;;;;18.69;93.82;97540.97;10389567;28;20430;-51
2023/06/27 06:08:34;;;;;;;11.02;7.88;;;;;;;18.93;92.69;97549.72;10383522;28;20119;-48
2023/06/27 06:13:32;;;;;;;12.30;7.68;;;;;;;19.11;90.97;97545.53;10405015;28;20131;-50
2023/06/27 06:18:31;;;;;;;9.90;7.45;;;;;;;19.28;90.94;97551.00;10406732;28;20076;-48
2023/06/27 06:23:30;;;;;;;12.20;7.20;;;;;;;19.61;90.65;97542.69;10367103;28;20064;-50
2023/06/27 06:28:30;;;;;;;11.30;6.80;;;;;;;19.63;88.83;97543.50;10366186;28;20131;-49
2023/06/27 06:33:29;;;;;;;9.60;6.43;;;;;;;19.79;88.30;97535.81;10366077;28;20332;-51
2023/06/27 06:38:29;;;;;;;10.13;5.82;;;;;;;19.70;85.90;97516.00;10365614;28;20059;-50
2023/06/27 06:43:28;;;;;;;13.50;6.63;;;;;;;20.12;85.04;97509.84;10366615;28;20127;-49
2023/06/27 06:48:27;;;;;;;11.13;6.97;;;;;;;20.64;84.55;97512.81;10365899;28;20496;-49
2023/06/27 06:53:26;;;;;;;14.98;6.50;;;;;;;20.85;80.93;97510.97;10382559;28;20507;-50
2023/06/27 06:58:25;;;;;;;10.15;6.28;;;;;;;21.12;81.64;97507.97;10394574;28;20390;-48
2023/06/27 07:03:24;;;;;;;11.77;6.38;;;;;;;21.42;76.95;97512.72;10364769;28;20151;-49
2023/06/27 07:08:25;;;;;;;10.07;5.95;;;;;;;21.63;76.24;97516.09;10371242;28;20072;-49
2023/06/27 07:13:24;;;;;;;10.07;6.10;;;;;;;21.71;75.69;97513.94;10403073;28;20123;-48
2023/06/27 07:18:23;;;;;;;10.40;6.00;;;;;;;21.72;75.43;97516.50;10376849;28;20139;-50
2023/06/27 07:23:22;;;;;;;12.63;7.50;;;;;;;21.84;76.88;97520.31;10378340;28;20040;-49
2023/06/27 07:28:21;;;;;;;10.98;6.10;;;;;;;22.25;73.62;97506.81;10373762;28;20462;-51
2023/06/27 07:33:20;;;;;;;10.13;6.20;;;;;;;22.44;72.38;97482.06;10405849;28;20055;-47
2023/06/27 07:38:19;;;;;;;10.70;6.05;;;;;;;22.77;69.58;97509.34;10365330;28;20025;-50
2023/06/27 07:43:18;;;;;;;9.15;5.82;;;;;;;22.97;68.41;97508.25;10369630;28;20041;-48
2023/06/27 07:48:17;;;;;;;8.57;5.90;;;;;;;23.18;66.75;97505.34;10410366;28;20115;-48
2023/06/27 07:53:16;;;;;;;8.55;5.55;;;;;;;23.56;61.95;97510.28;10372832;28;20585;-50
2023/06/27 07:58:15;;;;;;;7.05;5.40;;;;;;;23.80;62.59;97503.59;10405643;28;20520;-51
2023/06/27 08:03:14;;;;;;;9.30;5.72;;;;;;;24.04;59.94;97501.28;10374947;28;20028;-48
2023/06/27 08:08:13;;;;;;;9.77;5.30;;;;;;;24.17;57.41;97503.19;10398661;28;20525;-49
2023/06/27 08:13:12;;;;;;;8.73;5.45;;;;;;;24.34;51.79;97494.28;10378400;28;20552;-51
2023/06/27 08:18:11;;;;;;;6.85;5.10;;;;;;;24.53;49.17;97499.31;10389950;28;20565;-48
2023/06/27 08:23:09;;;;;;;7.95;5.15;;;;;;;24.54;51.37;97487.72;10397898;28;20468;-50
2023/06/27 08:28:08;;;;;;;9.50;5.53;;;;;;;24.85;50.31;97492.84;10402664;28;20462;-50
2023/06/27 08:33:07;;;;;;;9.10;5.70;;;;;;;25.03;50.51;97492.63;10400508;28;20492;-49
2023/06/27 08:38:06;;;;;;;7.72;5.68;;;;;;;25.02;50.16;97494.44;10401178;28;20473;-49
2023/06/27 08:43:06;;;;;;;8.15;5.70;;;;;;;25.26;51.06;97486.69;10399832;28;20045;-49
2023/06/27 08:48:06;;;;;;;8.43;5.25;;;;;;;25.45;50.60;97481.03;10378712;28;20065;-48
2023/06/27 08:53:09;;;;;;;8.40;5.25;;;;;;;25.53;49.93;97485.88;10388935;28;20060;-50
2023/06/27 08:58:14;;;;;;;7.57;5.32;;;;;;;25.67;50.79;97480.50;10389966;28;20068;-49
2023/06/27 09:03:14;;;;;;;9.52;5.70;;;;;;;26.02;49.71;97477.28;10389280;28;20491;-50
2023/06/27 09:08:13;;;;;;;7.45;5.03;;;;;;;26.23;47.47;97482.09;10399016;28;20589;-49
2023/06/27 09:13:12;;;;;;;5.15;4.38;;;;;;;26.30;46.21;97473.59;10378338;28;20064;-51
2023/06/27 09:18:11;;;;;;;8.50;4.93;;;;;;;26.07;45.02;97483.13;10395312;28;20080;-49
2023/06/27 09:23:10;;;;;;;7.32;5.25;;;;;;;26.01;44.66;97478.22;10388055;28;20115;-50
2023/06/27 09:28:16;;;;;;;6.88;4.78;;;;;;;26.45;45.75;97477.00;10383637;28;20112;-51
2023/06/27 09:33:18;;;;;;;11.90;5.38;;;;;;;26.79;46.13;97472.81;10396562;28;20076;-51
2023/06/27 09:38:19;;;;;;;7.53;4.90;;;;;;;26.60;44.14;97480.38;10385636;28;20823;-51
2023/06/27 09:43:19;;;;;;;6.15;4.65;;;;;;;26.78;45.04;97486.22;10383684;28;20087;-52
2023/06/27 09:48:18;;;;;;;6.82;5.38;;;;;;;27.14;45.61;97479.22;10382472;28;20079;-50
2023/06/27 09:53:17;;;;;;;7.32;4.78;;;;;;;27.32;43.00;97472.56;10389133;28;20024;-50
2023/06/27 09:58:29;;;;;;;7.50;4.80;;;;;;;27.49;44.29;97473.16;10381246;28;20886;-51
2023/06/27 10:03:28;;;;;;;6.20;5.03;;;;;;;27.53;45.64;97479.97;10384225;28;20072;-51
2023/06/27 10:08:27;;;;;;;5.88;4.50;;;;;;;27.61;43.42;97472.22;10374920;28;20036;-50
2023/06/27 10:13:27;;;;;;;7.28;5.65;;;;;;;27.23;43.40;97478.56;10382428;28;20847;-52
2023/06/27 10:18:26;;;;;;;7.68;5.57;;;;;;;27.00;43.38;97472.22;10381598;28;20534;-52
2023/06/27 10:23:26;;;;;;;6.30;4.70;;;;;;;27.15;43.34;97473.81;10389136;28;20052;-49
2023/06/27 10:28:28;;;;;;;6.72;5.00;;;;;;;27.37;41.74;97451.75;10397062;28;20071;-50
2023/06/27 10:33:31;;;;;;;6.53;4.47;;;;;;;27.58;41.32;97467.13;10390135;28;20120;-52
2023/06/27 10:38:41;;;;;;;7.95;5.68;;;;;;;27.94;42.68;97435.97;10396915;28;20126;-49
2023/06/27 10:43:47;;;;;;;6.50;4.70;;;;;;;28.33;41.68;97468.59;10368306;28;20727;-50
2023/06/27 10:48:58;;;;;;;7.38;5.18;;;;;;;28.43;41.60;97442.84;10381870;28;20123;-51
2023/06/27 10:54:11;;;;;;;6.65;5.30;;;;;;;28.25;40.44;97456.69;10389332;28;20156;-51
2023/06/27 10:59:13;;;;;;;6.85;4.70;;;;;;;28.50;41.61;97454.78;10383907;28;20073;-50
2023/06/27 11:04:16;;;;;;;7.22;5.50;;;;;;;28.58;40.64;97449.66;10373005;28;20119;-49
2023/06/27 11:09:18;;;;;;;7.15;5.30;;;;;;;28.14;41.31;97448.66;10389346;28;20488;-51
2023/06/27 11:14:32;;;;;;;9.15;5.55;;;;;;;28.18;39.51;97439.47;10405676;28;20064;-51
2023/06/27 11:19:33;;;;;;;7.70;5.40;;;;;;;28.20;39.81;97437.53;10393173;28;20591;-51
2023/06/27 11:24:32;;;;;;;11.68;5.32;;;;;;;28.59;40.15;97430.00;10385155;28;20060;-49
2023/06/27 11:29:32;;;;;;;8.80;5.10;;;;;;;28.43;38.97;97440.19;10387686;28;20080;-51
2023/06/27 11:34:31;;;;;;;6.55;4.75;;;;;;;28.38;39.52;97405.00;10412494;28;20083;-54
2023/06/27 11:39:34;;;;;;;7.60;5.13;;;;;;;28.32;38.95;97429.53;10405006;28;20060;-51
2023/06/27 11:44:34;;;;;;;8.52;5.53;;;;;;;27.96;38.84;97431.38;10423311;28;20082;-51
2023/06/27 11:49:35;;;;;;;7.90;5.57;;;;;;;28.15;39.58;97423.69;10423745;28;20084;-51
2023/06/27 11:54:34;;;;;;;7.70;5.05;;;;;;;28.32;38.21;97413.53;10399220;28;20114;-49
2023/06/27 11:59:33;;;;;;;6.55;4.75;;;;;;;28.35;37.88;97416.78;10397327;28;20112;-51
2023/06/27 12:04:32;;;;;;;11.07;5.03;;;;;;;28.40;37.92;97406.59;10407264;28;20102;-50
2023/06/27 12:09:31;;;;;;;6.22;4.93;;;;;;;28.54;37.30;97413.50;10386903;28;20091;-51
2023/06/27 12:14:29;;;;;;;6.57;5.53;;;;;;;28.90;38.33;97403.56;10408142;28;20151;-51
2023/06/27 12:19:28;;;;;;;6.68;5.00;;;;;;;28.98;36.09;97395.75;10398335;28;20418;-50
2023/06/27 12:24:27;;;;;;;6.15;4.72;;;;;;;29.11;36.13;97386.72;10411478;28;20042;-51
2023/06/27 12:29:27;;;;;;;7.50;5.40;;;;;;;29.22;36.57;97389.34;10388249;28;20046;-50
2023/06/27 12:34:26;;;;;;;6.25;4.90;;;;;;;28.93;35.71;97389.09;10378286;28;20083;-50
2023/06/27 12:39:25;;;;;;;8.18;5.47;;;;;;;29.12;35.58;97377.75;10392682;28;20029;-52
2023/06/27 12:44:24;;;;;;;6.63;5.22;;;;;;;28.86;36.49;97386.06;10392180;28;20029;-48
2023/06/27 12:49:23;;;;;;;7.85;5.63;;;;;;;29.04;37.22;97389.03;10384924;28;20547;-50
2023/06/27 12:54:22;;;;;;;6.65;4.97;;;;;;;29.35;36.73;97383.88;10383121;28;20751;-51
2023/06/27 12:59:26;;;;;;;7.90;5.05;;;;;;;29.11;35.88;97384.03;10389496;28;20895;-48
2023/06/27 13:04:27;;;;;;;6.20;5.00;;;;;;;29.20;35.21;97367.25;10391027;28;20477;-51
2023/06/27 13:09:26;;;;;;;7.20;5.32;;;;;;;28.96;34.66;97368.31;10385018;28;20131;-48
2023/06/27 13:14:25;;;;;;;5.97;5.13;;;;;;;29.06;34.97;97365.72;10385486;28;20127;-52
2023/06/27 13:19:24;;;;;;;7.45;5.03;;;;;;;28.94;35.21;97364.91;10385254;28;20491;-51
2023/06/27 13:24:23;;;;;;;7.53;5.15;;;;;;;29.20;35.67;97368.09;10391966;28;20094;-50
2023/06/27 13:29:22;;;;;;;9.48;5.32;;;;;;;28.75;35.90;97357.56;10408673;28;20385;-52
2023/06/27 13:34:22;;;;;;;7.70;5.55;;;;;;;28.75;36.45;97364.72;10409649;28;20521;-52
2023/06/27 13:39:21;;;;;;;9.00;5.50;;;;;;;28.66;36.16;97353.81;10378388;28;20060;-50
2023/06/27 13:44:20;;;;;;;6.88;5.40;;;;;;;28.90;36.46;97360.81;10378022;28;20169;-52
2023/06/27 13:49:19;;;;;;;9.13;5.78;;;;;;;28.98;36.85;97342.31;10369843;28;21169;-52
2023/06/27 13:54:17;;;;;;;7.80;5.30;;;;;;;28.81;36.62;97334.88;10409064;28;21046;-49
2023/06/27 13:59:16;;;;;;;6.15;4.90;;;;;;;28.97;35.15;97337.97;10373669;28;20507;-51
2023/06/27 14:04:15;;;;;;;8.90;5.80;;;;;;;29.32;36.49;97344.91;10380596;28;20116;-51
2023/06/27 14:09:14;;;;;;;6.90;5.10;;;;;;;29.04;37.77;97324.91;10380472;28;20530;-52
2023/06/27 14:14:13;;;;;;;8.48;5.65;;;;;;;29.20;35.96;97311.13;10380213;28;20805;-51
2023/06/27 14:19:12;;;;;;;6.82;5.20;;;;;;;28.73;36.52;97295.41;10376029;28;20044;-49
2023/06/27 14:24:12;;;;;;;8.15;6.05;;;;;;;28.98;36.90;97312.94;10377678;28;20500;-51
2023/06/27 14:29:11;;;;;;;5.63;5.05;;;;;;;28.97;35.43;97311.25;10369667;28;20148;-51
2023/06/27 14:34:09;;;;;;;6.70;5.50;;;;;;;28.98;36.70;97314.78;10395926;28;20037;-51
2023/06/27 14:39:08;;;;;;;10.68;5.78;;;;;;;29.18;35.77;97311.28;10375712;28;20115;-51
2023/06/27 14:44:07;;;;;;;7.95;5.80;;;;;;;28.98;36.02;97304.94;10380810;28;20040;-51
2023/06/27 14:49:06;;;;;;;9.32;5.82;;;;;;;28.94;35.97;97303.47;10378775;28;20536;-52
2023/06/27 14:54:05;;;;;;;9.00;6.30;;;;;;;28.94;36.27;97303.47;10370998;28;20040;-52
2023/06/27 14:59:05;;;;;;;6.95;5.78;;;;;;;29.14;35.95;97301.81;10381923;28;20169;-51
2023/06/27 15:04:04;;;;;;;8.35;5.10;;;;;;;29.13;35.77;97296.59;10377399;28;20115;-50
2023/06/27 15:09:03;;;;;;;9.15;5.97;;;;;;;28.82;35.93;97293.81;10400472;28;20119;-49
2023/06/27 15:14:02;;;;;;;8.77;5.53;;;;;;;28.98;35.18;97296.91;10321343;28;20080;-52
2023/06/27 15:19:01;;;;;;;6.13;5.28;;;;;;;29.02;35.23;97294.84;10343725;28;20828;-51
2023/06/27 15:24:00;;;;;;;9.15;6.30;;;;;;;28.88;35.27;97294.16;10336608;28;20631;-51
2023/06/27 15:28:59;;;;;;;7.80;5.25;;;;;;;28.91;35.17;97294.88;10362242;28;20488;-51
2023/06/27 15:33:58;;;;;;;7.43;5.45;;;;;;;28.97;36.27;97291.69;10382522;28;20286;-52
2023/06/27 15:38:57;;;;;;;9.07;5.85;;;;;;;28.77;36.16;97288.00;10387031;28;20043;-51
2023/06/27 15:43:56;;;;;;;7.78;5.65;;;;;;;28.60;36.23;97284.88;10379917;28;20027;-52
2023/06/27 15:48:55;;;;;;;8.25;5.65;;;;;;;28.56;36.27;97275.41;10379144;28;20100;-51
2023/06/27 15:53:54;;;;;;;6.20;5.57;;;;;;;28.46;36.62;97283.34;10376934;28;20119;-52
2023/06/27 15:58:53;;;;;;;9.00;5.53;;;;;;;28.64;37.54;97275.66;10377949;28;20047;-51
2023/06/27 16:03:52;;;;;;;9.52;6.55;;;;;;;28.54;36.48;97282.69;10373049;28;20568;-50
2023/06/27 16:08:51;;;;;;;8.13;5.57;;;;;;;28.42;36.57;97283.72;10394704;28;20407;-51
2023/06/27 16:13:50;;;;;;;7.88;6.13;;;;;;;28.38;38.04;97285.75;10387448;28;20119;-52
2023/06/27 16:18:50;;;;;;;7.90;5.90;;;;;;;28.40;37.51;97288.31;10379681;28;20095;-49
2023/06/27 16:23:49;;;;;;;7.18;5.68;;;;;;;28.25;37.80;97287.75;10380217;28;20063;-52
2023/06/27 16:28:48;;;;;;;10.02;6.80;;;;;;;28.22;38.50;97287.97;10383216;28;20080;-50
2023/06/27 16:33:49;;;;;;;9.68;6.03;;;;;;;28.43;38.55;97288.06;10382169;28;20079;-50
2023/06/27 16:38:48;;;;;;;8.15;6.28;;;;;;;28.29;37.85;97285.66;10382670;28;20064;-52
2023/06/27 16:43:47;;;;;;;9.70;6.65;;;;;;;28.34;37.79;97284.34;10383089;28;20079;-52
2023/06/27 16:48:46;;;;;;;8.15;5.68;;;;;;;28.28;37.10;97284.81;10378906;28;20068;-53
2023/06/27 16:53:45;;;;;;;7.32;5.63;;;;;;;28.19;37.56;97283.72;10380588;28;20120;-53
2023/06/27 16:58:44;;;;;;;10.23;6.15;;;;;;;28.14;37.48;97277.09;10382999;28;20033;-51
2023/06/27 17:03:43;;;;;;;8.13;6.45;;;;;;;28.25;38.29;97285.06;10397517;28;20031;-50
2023/06/27 17:08:43;;;;;;;7.40;6.07;;;;;;;28.30;38.36;97288.22;10398961;28;20037;-52
2023/06/27 17:13:42;;;;;;;8.40;5.35;;;;;;;28.23;37.58;97293.19;10383898;28;20139;-50
2023/06/27 17:18:41;;;;;;;9.23;6.05;;;;;;;28.03;38.06;97304.56;10378129;28;20039;-51
2023/06/27 17:23:40;;;;;;;10.45;6.80;;;;;;;27.81;39.27;97305.44;10379878;28;20505;-50
2023/06/27 17:28:39;;;;;;;11.70;6.97;;;;;;;27.69;42.66;97307.22;10375432;28;20029;-51
2023/06/27 17:33:38;;;;;;;8.93;6.85;;;;;;;27.45;45.62;97312.63;10381502;28;20572;-51
2023/06/27 17:38:37;;;;;;;11.40;7.63;;;;;;;27.23;46.37;97317.88;10384827;28;20535;-50
2023/06/27 17:43:36;;;;;;;10.13;7.57;;;;;;;26.96;47.56;97308.34;10375904;28;20445;-51
2023/06/27 17:48:34;;;;;;;12.77;8.05;;;;;;;26.63;47.67;97299.19;10398441;28;20033;-49
2023/06/27 17:53:34;;;;;;;13.95;7.63;;;;;;;26.29;47.76;97322.09;10394052;28;20127;-52
2023/06/27 17:58:33;;;;;;;12.55;8.00;;;;;;;25.89;48.57;97324.88;10388941;28;20558;-50
2023/06/27 18:03:35;;;;;;;10.07;7.60;;;;;;;25.55;48.99;97332.53;10399910;28;20119;-52
2023/06/27 18:08:34;;;;;;;9.82;7.25;;;;;;;25.23;49.64;97332.88;10384328;28;20080;-50
2023/06/27 18:13:33;;;;;;;12.48;7.50;;;;;;;24.87;50.72;97329.06;10371011;28;20025;-50
2023/06/27 18:18:32;;;;;;;11.13;7.65;;;;;;;24.47;51.40;97342.25;10377532;28;20176;-51
2023/06/27 18:23:31;;;;;;;12.98;8.02;;;;;;;24.14;53.04;97352.28;10372477;28;20017;-52
2023/06/27 18:28:30;;;;;;;9.90;7.20;;;;;;;23.83;54.50;97349.72;10392159;28;20123;-51
2023/06/27 18:33:29;;;;;;;12.68;7.90;;;;;;;23.56;56.07;97362.84;10395827;28;20123;-52
2023/06/27 18:38:32;;;;;;;11.73;7.60;;;;;;;23.30;56.69;97352.91;10396624;28;20048;-51
2023/06/27 18:43:32;;;;;;;15.57;8.52;;;;;;;22.82;58.42;97323.06;10397227;28;20080;-50
2023/06/27 18:48:31;;;;;;;13.85;8.35;;;;;;;22.78;61.27;97360.25;10389014;28;20111;-49
2023/06/27 18:53:30;;;;;;;13.90;8.00;;;;;;;22.60;63.26;97361.28;10370881;28;20563;-51
2023/06/27 18:58:29;;;;;;;12.45;8.73;;;;;;;22.39;64.17;97377.41;10381185;28;20491;-53
2023/06/27 19:03:28;;;;;;;13.02;9.00;;;;;;;22.26;64.63;97383.44;10369311;28;20035;-50
2023/06/27 19:08:27;;;;;;;13.85;9.20;;;;;;;22.16;65.04;97389.22;10377739;28;20038;-52
2023/06/27 19:13:26;;;;;;;12.48;9.48;;;;;;;22.06;65.52;97382.72;10376572;28;20495;-53
2023/06/27 19:18:25;;;;;;;19.23;9.23;;;;;;;21.93;65.12;97386.91;10376763;28;20468;-51
2023/06/27 19:23:24;;;;;;;16.80;9.52;;;;;;;21.84;64.91;97390.88;10375664;28;20151;-48
2023/06/27 19:28:23;;;;;;;13.50;8.70;;;;;;;21.69;64.22;97399.63;10372160;28;20120;-52
2023/06/27 19:33:23;;;;;;;12.90;8.60;;;;;;;21.60;64.38;97397.44;10395224;28;20087;-49
2023/06/27 19:38:22;;;;;;;15.27;9.30;;;;;;;21.59;64.97;97398.34;10371121;28;20087;-48
2023/06/27 19:43:21;;;;;;;21.90;11.10;;;;;;;21.48;68.27;97409.50;10383278;28;20080;-51
2023/06/27 19:48:20;;;;;;;20.45;12.60;;;;;;;21.35;72.08;97406.59;10404766;28;20056;-49
2023/06/27 19:53:19;;;;;;;19.83;12.93;;;;;;;21.25;74.19;97411.47;10402122;28;20496;-48
2023/06/27 19:58:18;;;;;;;17.45;11.88;;;;;;;21.07;76.54;97415.84;10392883;28;20467;-51
2023/06/27 20:03:17;;;;;;;18.42;12.23;;;;;;;21.00;76.49;97416.22;10383668;28;20052;-51
2023/06/27 20:08:18;;;;;;;19.73;11.55;;;;;;;20.86;77.62;97419.50;10378646;28;20041;-49
2023/06/27 20:13:17;;;;;;;19.00;11.50;;;;;;;20.70;77.75;97414.97;10383652;28;20119;-52
2023/06/27 20:18:16;;;;;;;17.52;11.18;;;;;;;20.65;77.66;97408.19;10384785;28;20048;-50
2023/06/27 20:23:15;;;;;;;16.08;12.13;;;;;;;20.43;78.67;97400.47;10399245;28;20059;-50
2023/06/27 20:28:14;;;;;;;15.55;11.20;;;;;;;20.41;78.54;97418.13;10399198;28;20527;-51
2023/06/27 20:33:13;;;;;;;16.67;11.48;;;;;;;20.43;77.90;97405.72;10401264;28;20036;-51
2023/06/27 20:38:12;;;;;;;21.63;11.43;;;;;;;20.39;77.95;97404.97;10372775;28;20099;-49
2023/06/27 20:43:13;;;;;;;13.20;10.48;;;;;;;20.25;77.85;97384.50;10397610;28;20388;-49
2023/06/27 20:48:12;;;;;;;13.38;10.25;;;;;;;20.26;77.71;97388.03;10399281;28;20083;-49
2023/06/27 20:53:11;;;;;;;16.23;11.32;;;;;;;20.16;77.45;97399.91;10401607;28;20488;-52
2023/06/27 20:58:10;;;;;;;16.23;10.88;;;;;;;20.05;77.66;97395.13;10387506;28;20052;-51
2023/06/27 21:03:09;;;;;;;13.88;9.77;;;;;;;20.00;77.11;97397.09;10394037;28;20445;-50
2023/06/27 21:08:08;;;;;;;14.80;9.90;;;;;;;19.90;77.25;97393.16;10402692;28;20212;-51
2023/06/27 21:13:07;;;;;;;19.15;11.23;;;;;;;19.86;77.42;97403.84;10392115;28;20116;-50
2023/06/27 21:18:06;;;;;;;16.08;11.50;;;;;;;19.79;79.79;97399.78;10393643;28;20052;-51
2023/06/27 21:23:05;;;;;;;16.10;10.70;;;;;;;19.68;82.39;97409.06;10383553;28;20525;-50
2023/06/27 21:28:04;;;;;;;17.80;11.13;;;;;;;19.62;82.15;97412.78;10386067;28;20355;-51
2023/06/27 21:33:03;;;;;;;16.42;10.85;;;;;;;19.54;82.72;97409.63;10385843;28;20640;-51
2023/06/27 21:38:02;;;;;;;21.13;11.15;;;;;;;19.42;83.38;97396.06;10384689;28;20068;-50
2023/06/27 21:43:01;;;;;;;19.25;10.82;;;;;;;19.28;84.17;97393.16;10372418;28;20112;-49
2023/06/27 21:48:00;;;;;;;16.65;10.85;;;;;;;19.28;84.44;97403.66;10365870;28;20122;-51
2023/06/27 21:52:59;;;;;;;21.35;12.18;;;;;;;19.24;83.78;97407.34;10369065;28;20116;-47
2023/06/27 21:57:58;;;;;;;22.13;12.32;;;;;;;19.17;83.57;97400.63;10379655;28;20075;-48
2023/06/27 22:02:57;;;;;;;19.98;12.88;;;;;;;19.10;83.69;97388.66;10368582;28;20064;-48
2023/06/27 22:07:56;;;;;;;18.83;12.45;;;;;;;19.08;83.39;97398.38;10403778;28;20048;-48
2023/06/27 22:12:55;;;;;;;16.15;11.80;;;;;;;18.99;84.76;97395.22;10367232;28;20040;-51
2023/06/27 22:17:54;;;;;;;17.08;12.07;;;;;;;18.93;85.50;97398.06;10403103;28;20119;-49
2023/06/27 22:22:53;;;;;;;16.58;11.82;;;;;;;18.89;85.32;97395.63;10387454;28;20024;-49
2023/06/27 22:27:52;;;;;;;14.95;11.77;;;;;;;18.82;85.55;97385.34;10369437;28;20135;-50
2023/06/27 22:32:51;;;;;;;14.98;11.65;;;;;;;18.77;85.55;97381.19;10404166;28;20060;-50
2023/06/27 22:37:50;;;;;;;14.75;11.40;;;;;;;18.69;85.68;97384.16;10371047;28;20048;-48
2023/06/27 22:42:49;;;;;;;19.02;10.60;;;;;;;18.65;85.08;97386.94;10403584;28;20146;-49
2023/06/27 22:47:48;;;;;;;14.65;11.40;;;;;;;18.55;85.19;97389.91;10370391;28;20110;-51
2023/06/27 22:52:47;;;;;;;20.88;12.40;;;;;;;18.49;85.86;97397.16;10401645;28;20566;-49
2023/06/27 22:57:46;;;;;;;21.70;11.77;;;;;;;18.27;86.48;97376.97;10378485;28;20560;-48